sensor_id;sensor_type;location;lat;lon;timestamp;P1;durP1;ratioP1;P2;durP2;ratioP2
69386;SDS011;56575;48.942;8.404;2022-07-29T00:01:47;5.70;;;4.20;;
69386;SDS011;56575;48.942;8.404;2022-07-29T00:04:13;6.15;;;4.40;;
69386;SDS011;56575;48.942;8.404;2022-07-29T00:06:38;5.17;;;3.90;;
69386;SDS011;56575;48.942;8.404;2022-07-29T00:09:05;6.05;;;4.38;;
69386;SDS011;56575;48.942;8.404;2022-07-29T00:11:33;6.32;;;4.50;;
69386;SDS011;56575;48.942;8.404;2022-07-29T00:13:58;6.23;;;4.30;;
69386;SDS011;56575;48.942;8.404;2022-07-29T00:16:24;6.40;;;4.20;;
69386;SDS011;56575;48.942;8.404;2022-07-29T00:18:49;7.60;;;4.50;;
69386;SDS011;56575;48.942;8.404;2022-07-29T00:21:14;4.67;;;4.07;;
69386;SDS011;56575;48.942;8.404;2022-07-29T00:23:41;5.83;;;4.20;;
69386;SDS011;56575;48.942;8.404;2022-07-29T00:26:07;6.72;;;3.90;;
69386;SDS011;56575;48.942;8.404;2022-07-29T00:28:32;9.30;;;5.07;;
69386;SDS011;56575;48.942;8.404;2022-07-29T00:30:58;6.93;;;4.20;;
69386;SDS011;56575;48.942;8.404;2022-07-29T00:33:24;5.47;;;3.55;;
69386;SDS011;56575;48.942;8.404;2022-07-29T00:35:49;5.70;;;3.97;;
69386;SDS011;56575;48.942;8.404;2022-07-29T00:38:15;6.07;;;4.27;;
69386;SDS011;56575;48.942;8.404;2022-07-29T00:40:45;5.63;;;3.90;;
69386;SDS011;56575;48.942;8.404;2022-07-29T00:43:11;6.30;;;4.67;;
69386;SDS011;56575;48.942;8.404;2022-07-29T00:45:38;6.88;;;4.20;;
69386;SDS011;56575;48.942;8.404;2022-07-29T00:48:04;5.68;;;4.10;;
69386;SDS011;56575;48.942;8.404;2022-07-29T00:50:31;4.57;;;3.75;;
69386;SDS011;56575;48.942;8.404;2022-07-29T00:52:57;4.60;;;3.90;;
69386;SDS011;56575;48.942;8.404;2022-07-29T00:55:24;6.78;;;4.00;;
69386;SDS011;56575;48.942;8.404;2022-07-29T00:57:50;9.13;;;4.67;;
69386;SDS011;56575;48.942;8.404;2022-07-29T01:00:17;5.80;;;4.60;;
69386;SDS011;56575;48.942;8.404;2022-07-29T01:02:46;7.07;;;4.43;;
69386;SDS011;56575;48.942;8.404;2022-07-29T01:05:16;6.38;;;4.32;;
69386;SDS011;56575;48.942;8.404;2022-07-29T01:07:44;6.18;;;4.40;;
69386;SDS011;56575;48.942;8.404;2022-07-29T01:10:11;5.30;;;4.30;;
69386;SDS011;56575;48.942;8.404;2022-07-29T01:12:38;5.57;;;4.28;;
69386;SDS011;56575;48.942;8.404;2022-07-29T01:15:05;6.20;;;4.18;;
69386;SDS011;56575;48.942;8.404;2022-07-29T01:17:46;6.15;;;4.32;;
69386;SDS011;56575;48.942;8.404;2022-07-29T01:20:20;5.35;;;4.30;;
69386;SDS011;56575;48.942;8.404;2022-07-29T01:22:53;7.53;;;4.50;;
69386;SDS011;56575;48.942;8.404;2022-07-29T01:25:47;5.88;;;4.40;;
69386;SDS011;56575;48.942;8.404;2022-07-29T01:31:06;5.30;;;4.32;;
69386;SDS011;56575;48.942;8.404;2022-07-29T01:33:34;5.60;;;4.32;;
69386;SDS011;56575;48.942;8.404;2022-07-29T01:36:18;5.63;;;4.40;;
69386;SDS011;56575;48.942;8.404;2022-07-29T01:38:54;5.35;;;4.13;;
69386;SDS011;56575;48.942;8.404;2022-07-29T01:41:27;5.45;;;4.35;;
69386;SDS011;56575;48.942;8.404;2022-07-29T01:43:57;5.75;;;4.50;;
69386;SDS011;56575;48.942;8.404;2022-07-29T01:46:34;6.93;;;4.40;;
69386;SDS011;56575;48.942;8.404;2022-07-29T01:49:13;6.27;;;4.47;;
69386;SDS011;56575;48.942;8.404;2022-07-29T01:51:53;6.95;;;4.70;;
69386;SDS011;56575;48.942;8.404;2022-07-29T01:54:42;5.85;;;4.50;;
69386;SDS011;56575;48.942;8.404;2022-07-29T01:57:14;5.32;;;4.45;;
69386;SDS011;56575;48.942;8.404;2022-07-29T01:59:42;6.68;;;4.80;;
69386;SDS011;56575;48.942;8.404;2022-07-29T02:02:10;5.90;;;4.27;;
69386;SDS011;56575;48.942;8.404;2022-07-29T02:04:38;4.68;;;4.00;;
69386;SDS011;56575;48.942;8.404;2022-07-29T02:07:06;6.40;;;4.30;;
69386;SDS011;56575;48.942;8.404;2022-07-29T02:09:34;5.18;;;4.07;;
69386;SDS011;56575;48.942;8.404;2022-07-29T02:12:02;4.47;;;3.95;;
69386;SDS011;56575;48.942;8.404;2022-07-29T02:14:32;7.23;;;4.43;;
69386;SDS011;56575;48.942;8.404;2022-07-29T02:17:05;5.82;;;3.97;;
69386;SDS011;56575;48.942;8.404;2022-07-29T02:45:07;9.70;;;4.83;;
69386;SDS011;56575;48.942;8.404;2022-07-29T02:48:21;4.78;;;4.30;;
69386;SDS011;56575;48.942;8.404;2022-07-29T02:50:51;5.68;;;4.53;;
69386;SDS011;56575;48.942;8.404;2022-07-29T02:53:24;6.65;;;4.82;;
69386;SDS011;56575;48.942;8.404;2022-07-29T02:55:59;5.32;;;4.57;;
69386;SDS011;56575;48.942;8.404;2022-07-29T02:58:30;6.10;;;4.73;;
69386;SDS011;56575;48.942;8.404;2022-07-29T03:00:59;6.47;;;4.43;;
69386;SDS011;56575;48.942;8.404;2022-07-29T03:03:32;5.90;;;4.93;;
69386;SDS011;56575;48.942;8.404;2022-07-29T03:06:01;7.13;;;4.43;;
69386;SDS011;56575;48.942;8.404;2022-07-29T03:08:28;5.53;;;4.10;;
69386;SDS011;56575;48.942;8.404;2022-07-29T03:26:50;5.90;;;4.37;;
69386;SDS011;56575;48.942;8.404;2022-07-29T03:29:16;6.85;;;4.60;;
69386;SDS011;56575;48.942;8.404;2022-07-29T03:31:41;6.10;;;4.57;;
69386;SDS011;56575;48.942;8.404;2022-07-29T03:34:07;6.07;;;4.20;;
69386;SDS011;56575;48.942;8.404;2022-07-29T03:36:32;5.53;;;4.20;;
69386;SDS011;56575;48.942;8.404;2022-07-29T03:38:58;7.77;;;5.07;;
69386;SDS011;56575;48.942;8.404;2022-07-29T03:41:27;6.72;;;4.88;;
69386;SDS011;56575;48.942;8.404;2022-07-29T03:43:55;5.93;;;4.28;;
69386;SDS011;56575;48.942;8.404;2022-07-29T03:46:23;6.45;;;4.35;;
69386;SDS011;56575;48.942;8.404;2022-07-29T03:48:54;5.20;;;4.50;;
69386;SDS011;56575;48.942;8.404;2022-07-29T03:51:26;6.23;;;4.70;;
69386;SDS011;56575;48.942;8.404;2022-07-29T03:53:52;6.57;;;4.78;;
69386;SDS011;56575;48.942;8.404;2022-07-29T03:56:19;6.90;;;4.70;;
69386;SDS011;56575;48.942;8.404;2022-07-29T03:58:49;5.95;;;4.80;;
69386;SDS011;56575;48.942;8.404;2022-07-29T04:01:18;6.57;;;4.68;;
69386;SDS011;56575;48.942;8.404;2022-07-29T04:03:45;6.30;;;4.53;;
69386;SDS011;56575;48.942;8.404;2022-07-29T04:06:11;6.65;;;4.63;;
69386;SDS011;56575;48.942;8.404;2022-07-29T04:08:37;6.22;;;4.65;;
69386;SDS011;56575;48.942;8.404;2022-07-29T04:11:02;9.57;;;5.17;;
69386;SDS011;56575;48.942;8.404;2022-07-29T04:13:30;7.35;;;4.65;;
69386;SDS011;56575;48.942;8.404;2022-07-29T04:15:57;6.53;;;4.50;;
69386;SDS011;56575;48.942;8.404;2022-07-29T04:18:22;7.67;;;4.40;;
69386;SDS011;56575;48.942;8.404;2022-07-29T04:20:49;6.10;;;4.67;;
69386;SDS011;56575;48.942;8.404;2022-07-29T04:23:15;6.57;;;4.72;;
69386;SDS011;56575;48.942;8.404;2022-07-29T04:25:57;6.82;;;4.72;;
69386;SDS011;56575;48.942;8.404;2022-07-29T04:28:25;6.97;;;4.73;;
69386;SDS011;56575;48.942;8.404;2022-07-29T04:30:51;8.10;;;4.90;;
69386;SDS011;56575;48.942;8.404;2022-07-29T04:33:16;7.43;;;4.97;;
69386;SDS011;56575;48.942;8.404;2022-07-29T04:35:41;7.23;;;4.70;;
69386;SDS011;56575;48.942;8.404;2022-07-29T04:38:07;6.93;;;4.80;;
69386;SDS011;56575;48.942;8.404;2022-07-29T04:40:33;7.30;;;5.07;;
69386;SDS011;56575;48.942;8.404;2022-07-29T04:43:01;7.35;;;5.30;;
69386;SDS011;56575;48.942;8.404;2022-07-29T04:45:27;5.35;;;4.65;;
69386;SDS011;56575;48.942;8.404;2022-07-29T04:47:53;6.67;;;4.90;;
69386;SDS011;56575;48.942;8.404;2022-07-29T04:50:19;6.72;;;5.05;;
69386;SDS011;56575;48.942;8.404;2022-07-29T04:52:44;8.60;;;6.00;;
69386;SDS011;56575;48.942;8.404;2022-07-29T04:55:09;6.87;;;5.30;;
69386;SDS011;56575;48.942;8.404;2022-07-29T04:57:35;8.43;;;5.23;;
69386;SDS011;56575;48.942;8.404;2022-07-29T05:00:00;8.33;;;5.47;;
69386;SDS011;56575;48.942;8.404;2022-07-29T05:02:26;11.88;;;5.85;;
69386;SDS011;56575;48.942;8.404;2022-07-29T05:04:51;7.20;;;5.73;;
69386;SDS011;56575;48.942;8.404;2022-07-29T05:07:18;10.10;;;6.20;;
69386;SDS011;56575;48.942;8.404;2022-07-29T05:09:43;11.40;;;6.40;;
69386;SDS011;56575;48.942;8.404;2022-07-29T05:12:09;9.37;;;6.20;;
69386;SDS011;56575;48.942;8.404;2022-07-29T05:14:34;13.50;;;6.67;;
69386;SDS011;56575;48.942;8.404;2022-07-29T05:17:00;9.52;;;6.40;;
69386;SDS011;56575;48.942;8.404;2022-07-29T05:19:25;9.40;;;6.73;;
69386;SDS011;56575;48.942;8.404;2022-07-29T05:21:50;9.73;;;6.03;;
69386;SDS011;56575;48.942;8.404;2022-07-29T05:24:16;7.73;;;6.13;;
69386;SDS011;56575;48.942;8.404;2022-07-29T05:26:41;11.57;;;6.45;;
69386;SDS011;56575;48.942;8.404;2022-07-29T05:29:07;10.10;;;6.40;;
69386;SDS011;56575;48.942;8.404;2022-07-29T05:31:33;8.73;;;6.65;;
69386;SDS011;56575;48.942;8.404;2022-07-29T05:33:59;10.93;;;6.63;;
69386;SDS011;56575;48.942;8.404;2022-07-29T05:36:25;9.73;;;6.38;;
69386;SDS011;56575;48.942;8.404;2022-07-29T05:38:51;10.60;;;7.28;;
69386;SDS011;56575;48.942;8.404;2022-07-29T05:41:17;9.77;;;6.23;;
69386;SDS011;56575;48.942;8.404;2022-07-29T05:43:43;8.70;;;6.72;;
69386;SDS011;56575;48.942;8.404;2022-07-29T05:46:09;8.37;;;6.30;;
69386;SDS011;56575;48.942;8.404;2022-07-29T05:48:34;11.75;;;6.90;;
69386;SDS011;56575;48.942;8.404;2022-07-29T05:51:00;10.83;;;6.30;;
69386;SDS011;56575;48.942;8.404;2022-07-29T05:53:25;7.57;;;6.27;;
69386;SDS011;56575;48.942;8.404;2022-07-29T05:55:51;8.70;;;6.90;;
69386;SDS011;56575;48.942;8.404;2022-07-29T05:58:17;11.23;;;6.77;;
69386;SDS011;56575;48.942;8.404;2022-07-29T06:00:43;11.88;;;7.40;;
69386;SDS011;56575;48.942;8.404;2022-07-29T06:03:08;8.32;;;5.90;;
69386;SDS011;56575;48.942;8.404;2022-07-29T06:05:34;8.47;;;6.00;;
69386;SDS011;56575;48.942;8.404;2022-07-29T06:07:59;7.33;;;5.97;;
69386;SDS011;56575;48.942;8.404;2022-07-29T06:10:24;7.63;;;4.73;;
69386;SDS011;56575;48.942;8.404;2022-07-29T06:12:50;8.32;;;4.82;;
69386;SDS011;56575;48.942;8.404;2022-07-29T06:15:15;9.37;;;4.90;;
69386;SDS011;56575;48.942;8.404;2022-07-29T06:17:41;8.67;;;4.77;;
69386;SDS011;56575;48.942;8.404;2022-07-29T06:20:06;9.38;;;4.95;;
69386;SDS011;56575;48.942;8.404;2022-07-29T06:22:32;7.77;;;4.57;;
69386;SDS011;56575;48.942;8.404;2022-07-29T06:24:57;7.37;;;4.87;;
69386;SDS011;56575;48.942;8.404;2022-07-29T06:27:23;7.00;;;5.00;;
69386;SDS011;56575;48.942;8.404;2022-07-29T06:29:48;7.00;;;4.67;;
69386;SDS011;56575;48.942;8.404;2022-07-29T06:32:14;6.73;;;4.70;;
69386;SDS011;56575;48.942;8.404;2022-07-29T06:34:40;7.40;;;4.90;;
69386;SDS011;56575;48.942;8.404;2022-07-29T06:37:08;8.77;;;4.95;;
69386;SDS011;56575;48.942;8.404;2022-07-29T06:39:34;7.50;;;4.80;;
69386;SDS011;56575;48.942;8.404;2022-07-29T06:42:01;7.72;;;4.60;;
69386;SDS011;56575;48.942;8.404;2022-07-29T06:44:27;9.50;;;4.93;;
69386;SDS011;56575;48.942;8.404;2022-07-29T06:46:52;6.07;;;4.47;;
69386;SDS011;56575;48.942;8.404;2022-07-29T06:49:19;10.23;;;5.27;;
69386;SDS011;56575;48.942;8.404;2022-07-29T06:51:45;6.57;;;4.70;;
69386;SDS011;56575;48.942;8.404;2022-07-29T06:54:10;7.93;;;4.73;;
69386;SDS011;56575;48.942;8.404;2022-07-29T06:56:35;7.67;;;4.57;;
69386;SDS011;56575;48.942;8.404;2022-07-29T06:59:02;6.38;;;4.60;;
69386;SDS011;56575;48.942;8.404;2022-07-29T07:01:28;7.90;;;4.25;;
69386;SDS011;56575;48.942;8.404;2022-07-29T07:03:57;8.02;;;4.80;;
69386;SDS011;56575;48.942;8.404;2022-07-29T07:06:22;7.23;;;4.63;;
69386;SDS011;56575;48.942;8.404;2022-07-29T07:08:48;7.53;;;5.00;;
69386;SDS011;56575;48.942;8.404;2022-07-29T07:11:13;7.70;;;5.00;;
69386;SDS011;56575;48.942;8.404;2022-07-29T07:13:39;7.38;;;5.15;;
69386;SDS011;56575;48.942;8.404;2022-07-29T07:16:10;7.45;;;4.50;;
69386;SDS011;56575;48.942;8.404;2022-07-29T07:18:37;6.97;;;4.90;;
69386;SDS011;56575;48.942;8.404;2022-07-29T07:21:02;6.55;;;4.97;;
69386;SDS011;56575;48.942;8.404;2022-07-29T07:23:29;6.70;;;4.95;;
69386;SDS011;56575;48.942;8.404;2022-07-29T07:25:55;7.40;;;4.90;;
69386;SDS011;56575;48.942;8.404;2022-07-29T07:28:21;7.32;;;5.10;;
69386;SDS011;56575;48.942;8.404;2022-07-29T07:30:48;7.40;;;5.00;;
69386;SDS011;56575;48.942;8.404;2022-07-29T07:33:14;10.40;;;4.80;;
69386;SDS011;56575;48.942;8.404;2022-07-29T07:35:40;10.00;;;5.20;;
69386;SDS011;56575;48.942;8.404;2022-07-29T07:38:06;7.72;;;4.68;;
69386;SDS011;56575;48.942;8.404;2022-07-29T07:40:32;7.70;;;4.70;;
69386;SDS011;56575;48.942;8.404;2022-07-29T07:43:04;8.18;;;4.72;;
69386;SDS011;56575;48.942;8.404;2022-07-29T07:45:30;7.87;;;4.70;;
69386;SDS011;56575;48.942;8.404;2022-07-29T07:48:01;6.22;;;4.40;;
69386;SDS011;56575;48.942;8.404;2022-07-29T07:50:28;12.63;;;4.80;;
69386;SDS011;56575;48.942;8.404;2022-07-29T07:52:54;8.77;;;4.10;;
69386;SDS011;56575;48.942;8.404;2022-07-29T07:55:27;10.23;;;4.40;;
69386;SDS011;56575;48.942;8.404;2022-07-29T07:57:53;7.90;;;4.30;;
69386;SDS011;56575;48.942;8.404;2022-07-29T08:00:19;6.38;;;4.10;;
69386;SDS011;56575;48.942;8.404;2022-07-29T08:02:45;8.63;;;4.80;;
69386;SDS011;56575;48.942;8.404;2022-07-29T08:05:11;10.83;;;4.10;;
69386;SDS011;56575;48.942;8.404;2022-07-29T08:07:41;4.95;;;3.85;;
69386;SDS011;56575;48.942;8.404;2022-07-29T08:10:08;9.80;;;4.00;;
69386;SDS011;56575;48.942;8.404;2022-07-29T08:12:34;10.40;;;4.10;;
69386;SDS011;56575;48.942;8.404;2022-07-29T08:14:59;7.73;;;4.03;;
69386;SDS011;56575;48.942;8.404;2022-07-29T08:17:25;6.78;;;3.63;;
69386;SDS011;56575;48.942;8.404;2022-07-29T08:19:51;7.17;;;3.93;;
69386;SDS011;56575;48.942;8.404;2022-07-29T08:22:16;5.40;;;3.83;;
69386;SDS011;56575;48.942;8.404;2022-07-29T08:24:42;7.53;;;3.73;;
69386;SDS011;56575;48.942;8.404;2022-07-29T08:27:08;9.83;;;4.30;;
69386;SDS011;56575;48.942;8.404;2022-07-29T08:29:37;6.25;;;3.63;;
69386;SDS011;56575;48.942;8.404;2022-07-29T08:32:02;7.40;;;4.03;;
69386;SDS011;56575;48.942;8.404;2022-07-29T08:34:29;11.52;;;3.78;;
69386;SDS011;56575;48.942;8.404;2022-07-29T08:36:55;7.20;;;3.83;;
69386;SDS011;56575;48.942;8.404;2022-07-29T08:39:21;8.50;;;3.70;;
69386;SDS011;56575;48.942;8.404;2022-07-29T08:41:48;8.13;;;3.47;;
69386;SDS011;56575;48.942;8.404;2022-07-29T08:44:17;14.35;;;4.45;;
69386;SDS011;56575;48.942;8.404;2022-07-29T08:46:43;11.20;;;3.60;;
69386;SDS011;56575;48.942;8.404;2022-07-29T08:49:08;5.93;;;3.60;;
69386;SDS011;56575;48.942;8.404;2022-07-29T08:51:34;9.55;;;3.50;;
69386;SDS011;56575;48.942;8.404;2022-07-29T08:54:02;7.47;;;3.87;;
69386;SDS011;56575;48.942;8.404;2022-07-29T08:56:28;7.13;;;3.53;;
69386;SDS011;56575;48.942;8.404;2022-07-29T08:58:54;7.35;;;4.20;;
69386;SDS011;56575;48.942;8.404;2022-07-29T09:01:22;4.78;;;3.80;;
69386;SDS011;56575;48.942;8.404;2022-07-29T09:03:49;8.25;;;3.95;;
69386;SDS011;56575;48.942;8.404;2022-07-29T09:06:16;8.70;;;4.00;;
69386;SDS011;56575;48.942;8.404;2022-07-29T09:08:43;7.40;;;3.65;;
69386;SDS011;56575;48.942;8.404;2022-07-29T09:11:09;7.60;;;3.80;;
69386;SDS011;56575;48.942;8.404;2022-07-29T09:13:36;6.32;;;3.72;;
69386;SDS011;56575;48.942;8.404;2022-07-29T09:16:01;6.33;;;3.97;;
69386;SDS011;56575;48.942;8.404;2022-07-29T09:18:33;7.30;;;3.65;;
69386;SDS011;56575;48.942;8.404;2022-07-29T09:21:03;7.37;;;3.60;;
69386;SDS011;56575;48.942;8.404;2022-07-29T09:26:33;10.20;;;4.20;;
69386;SDS011;56575;48.942;8.404;2022-07-29T09:29:07;8.57;;;4.10;;
69386;SDS011;56575;48.942;8.404;2022-07-29T09:31:36;7.65;;;3.67;;
69386;SDS011;56575;48.942;8.404;2022-07-29T09:34:04;8.07;;;3.90;;
69386;SDS011;56575;48.942;8.404;2022-07-29T09:36:30;7.57;;;3.80;;
69386;SDS011;56575;48.942;8.404;2022-07-29T09:38:59;6.00;;;3.67;;
69386;SDS011;56575;48.942;8.404;2022-07-29T09:41:25;7.93;;;3.70;;
69386;SDS011;56575;48.942;8.404;2022-07-29T09:43:57;7.77;;;3.53;;
69386;SDS011;56575;48.942;8.404;2022-07-29T09:46:24;6.47;;;3.53;;
69386;SDS011;56575;48.942;8.404;2022-07-29T09:49:09;5.55;;;3.60;;
69386;SDS011;56575;48.942;8.404;2022-07-29T09:51:36;6.90;;;3.78;;
69386;SDS011;56575;48.942;8.404;2022-07-29T09:54:11;6.05;;;3.90;;
69386;SDS011;56575;48.942;8.404;2022-07-29T09:56:48;6.57;;;4.20;;
69386;SDS011;56575;48.942;8.404;2022-07-29T09:59:14;5.85;;;4.20;;
69386;SDS011;56575;48.942;8.404;2022-07-29T10:01:39;7.77;;;3.80;;
69386;SDS011;56575;48.942;8.404;2022-07-29T10:04:05;5.20;;;4.00;;
69386;SDS011;56575;48.942;8.404;2022-07-29T10:06:30;6.50;;;4.00;;
69386;SDS011;56575;48.942;8.404;2022-07-29T10:09:11;5.45;;;3.50;;
69386;SDS011;56575;48.942;8.404;2022-07-29T10:11:37;6.70;;;4.30;;
69386;SDS011;56575;48.942;8.404;2022-07-29T10:14:03;7.53;;;4.50;;
69386;SDS011;56575;48.942;8.404;2022-07-29T10:16:29;6.53;;;3.88;;
69386;SDS011;56575;48.942;8.404;2022-07-29T10:19:00;7.30;;;4.07;;
69386;SDS011;56575;48.942;8.404;2022-07-29T10:21:26;5.97;;;3.88;;
69386;SDS011;56575;48.942;8.404;2022-07-29T10:23:53;6.05;;;3.97;;
69386;SDS011;56575;48.942;8.404;2022-07-29T10:26:19;7.10;;;3.83;;
69386;SDS011;56575;48.942;8.404;2022-07-29T10:28:45;5.15;;;3.45;;
69386;SDS011;56575;48.942;8.404;2022-07-29T10:31:13;5.30;;;3.93;;
69386;SDS011;56575;48.942;8.404;2022-07-29T10:33:48;6.22;;;3.65;;
69386;SDS011;56575;48.942;8.404;2022-07-29T10:36:49;7.45;;;3.90;;
69386;SDS011;56575;48.942;8.404;2022-07-29T10:44:52;4.55;;;3.20;;
69386;SDS011;56575;48.942;8.404;2022-07-29T10:47:25;5.50;;;3.10;;
69386;SDS011;56575;48.942;8.404;2022-07-29T10:49:55;5.78;;;3.17;;
69386;SDS011;56575;48.942;8.404;2022-07-29T10:55:30;5.05;;;3.53;;
69386;SDS011;56575;48.942;8.404;2022-07-29T11:00:50;4.50;;;3.00;;
69386;SDS011;56575;48.942;8.404;2022-07-29T11:06:08;5.73;;;2.57;;
69386;SDS011;56575;48.942;8.404;2022-07-29T11:08:34;7.78;;;2.90;;
69386;SDS011;56575;48.942;8.404;2022-07-29T11:16:11;3.97;;;2.80;;
69386;SDS011;56575;48.942;8.404;2022-07-29T11:18:36;5.07;;;2.40;;
69386;SDS011;56575;48.942;8.404;2022-07-29T11:21:35;3.85;;;2.53;;
69386;SDS011;56575;48.942;8.404;2022-07-29T11:24:13;5.00;;;2.92;;
69386;SDS011;56575;48.942;8.404;2022-07-29T11:27:03;5.80;;;2.50;;
69386;SDS011;56575;48.942;8.404;2022-07-29T11:29:39;6.33;;;2.60;;
69386;SDS011;56575;48.942;8.404;2022-07-29T11:32:13;5.13;;;3.08;;
69386;SDS011;56575;48.942;8.404;2022-07-29T11:34:40;4.63;;;2.33;;
69386;SDS011;56575;48.942;8.404;2022-07-29T11:44:53;5.60;;;2.50;;
69386;SDS011;56575;48.942;8.404;2022-07-29T11:47:19;3.88;;;2.20;;
69386;SDS011;56575;48.942;8.404;2022-07-29T11:49:46;4.03;;;2.20;;
69386;SDS011;56575;48.942;8.404;2022-07-29T11:52:12;3.10;;;1.80;;
69386;SDS011;56575;48.942;8.404;2022-07-29T11:54:38;4.68;;;2.20;;
69386;SDS011;56575;48.942;8.404;2022-07-29T11:57:07;5.80;;;2.10;;
69386;SDS011;56575;48.942;8.404;2022-07-29T11:59:38;3.38;;;2.10;;
69386;SDS011;56575;48.942;8.404;2022-07-29T12:02:08;5.10;;;2.40;;
69386;SDS011;56575;48.942;8.404;2022-07-29T12:04:34;4.15;;;2.63;;
69386;SDS011;56575;48.942;8.404;2022-07-29T12:07:16;6.18;;;2.53;;
69386;SDS011;56575;48.942;8.404;2022-07-29T12:09:51;4.47;;;2.70;;
69386;SDS011;56575;48.942;8.404;2022-07-29T12:12:18;4.10;;;2.70;;
69386;SDS011;56575;48.942;8.404;2022-07-29T12:14:44;5.05;;;2.70;;
69386;SDS011;56575;48.942;8.404;2022-07-29T12:19:52;4.57;;;2.70;;
69386;SDS011;56575;48.942;8.404;2022-07-29T12:22:28;4.40;;;2.55;;
69386;SDS011;56575;48.942;8.404;2022-07-29T12:25:13;4.17;;;2.63;;
69386;SDS011;56575;48.942;8.404;2022-07-29T12:27:43;5.03;;;2.78;;
69386;SDS011;56575;48.942;8.404;2022-07-29T12:30:10;4.05;;;2.30;;
69386;SDS011;56575;48.942;8.404;2022-07-29T12:35:10;4.57;;;2.50;;
69386;SDS011;56575;48.942;8.404;2022-07-29T12:37:38;5.85;;;2.60;;
69386;SDS011;56575;48.942;8.404;2022-07-29T12:40:06;4.05;;;2.63;;
69386;SDS011;56575;48.942;8.404;2022-07-29T12:42:33;7.07;;;2.60;;
69386;SDS011;56575;48.942;8.404;2022-07-29T12:44:59;4.50;;;2.60;;
69386;SDS011;56575;48.942;8.404;2022-07-29T12:47:24;4.97;;;2.43;;
69386;SDS011;56575;48.942;8.404;2022-07-29T12:49:50;5.03;;;2.60;;
69386;SDS011;56575;48.942;8.404;2022-07-29T12:52:23;4.83;;;2.33;;
69386;SDS011;56575;48.942;8.404;2022-07-29T12:54:50;4.82;;;2.38;;
69386;SDS011;56575;48.942;8.404;2022-07-29T12:57:15;5.32;;;2.67;;
69386;SDS011;56575;48.942;8.404;2022-07-29T12:59:43;6.27;;;2.13;;
69386;SDS011;56575;48.942;8.404;2022-07-29T13:02:20;6.97;;;2.40;;
69386;SDS011;56575;48.942;8.404;2022-07-29T13:04:57;4.78;;;2.28;;
69386;SDS011;56575;48.942;8.404;2022-07-29T13:07:28;5.90;;;2.30;;
69386;SDS011;56575;48.942;8.404;2022-07-29T13:09:58;3.08;;;2.10;;
69386;SDS011;56575;48.942;8.404;2022-07-29T13:15:43;4.28;;;2.20;;
69386;SDS011;56575;48.942;8.404;2022-07-29T13:20:57;6.50;;;2.13;;
69386;SDS011;56575;48.942;8.404;2022-07-29T13:23:40;6.88;;;2.30;;
69386;SDS011;56575;48.942;8.404;2022-07-29T13:26:06;4.00;;;2.10;;
69386;SDS011;56575;48.942;8.404;2022-07-29T13:28:41;3.67;;;2.10;;
69386;SDS011;56575;48.942;8.404;2022-07-29T13:31:06;4.10;;;1.97;;
69386;SDS011;56575;48.942;8.404;2022-07-29T13:33:32;4.97;;;2.20;;
69386;SDS011;56575;48.942;8.404;2022-07-29T13:35:57;5.28;;;2.03;;
69386;SDS011;56575;48.942;8.404;2022-07-29T13:38:22;6.47;;;2.40;;
69386;SDS011;56575;48.942;8.404;2022-07-29T13:40:48;5.83;;;1.83;;
69386;SDS011;56575;48.942;8.404;2022-07-29T13:43:13;4.83;;;2.00;;
69386;SDS011;56575;48.942;8.404;2022-07-29T13:45:39;6.57;;;1.90;;
69386;SDS011;56575;48.942;8.404;2022-07-29T13:48:23;2.85;;;1.85;;
69386;SDS011;56575;48.942;8.404;2022-07-29T13:50:48;6.87;;;2.20;;
69386;SDS011;56575;48.942;8.404;2022-07-29T13:53:14;8.10;;;2.40;;
69386;SDS011;56575;48.942;8.404;2022-07-29T13:55:39;5.57;;;1.90;;
69386;SDS011;56575;48.942;8.404;2022-07-29T13:58:04;8.97;;;2.10;;
69386;SDS011;56575;48.942;8.404;2022-07-29T14:00:30;6.23;;;2.27;;
69386;SDS011;56575;48.942;8.404;2022-07-29T14:02:56;6.67;;;2.17;;
69386;SDS011;56575;48.942;8.404;2022-07-29T14:05:21;4.15;;;2.28;;
69386;SDS011;56575;48.942;8.404;2022-07-29T14:07:47;2.40;;;1.83;;
69386;SDS011;56575;48.942;8.404;2022-07-29T14:10:12;3.37;;;2.20;;
69386;SDS011;56575;48.942;8.404;2022-07-29T14:12:38;3.20;;;2.10;;
69386;SDS011;56575;48.942;8.404;2022-07-29T14:15:03;3.57;;;2.17;;
69386;SDS011;56575;48.942;8.404;2022-07-29T14:17:29;4.60;;;1.88;;
69386;SDS011;56575;48.942;8.404;2022-07-29T14:19:54;6.03;;;2.23;;
69386;SDS011;56575;48.942;8.404;2022-07-29T14:22:20;4.53;;;2.10;;
69386;SDS011;56575;48.942;8.404;2022-07-29T14:24:45;4.93;;;2.30;;
69386;SDS011;56575;48.942;8.404;2022-07-29T14:27:11;5.55;;;2.35;;
69386;SDS011;56575;48.942;8.404;2022-07-29T14:29:36;4.30;;;2.13;;
69386;SDS011;56575;48.942;8.404;2022-07-29T14:32:02;4.22;;;2.03;;
69386;SDS011;56575;48.942;8.404;2022-07-29T14:34:28;5.83;;;2.10;;
69386;SDS011;56575;48.942;8.404;2022-07-29T14:36:53;3.10;;;2.10;;
69386;SDS011;56575;48.942;8.404;2022-07-29T14:39:20;3.70;;;2.17;;
69386;SDS011;56575;48.942;8.404;2022-07-29T14:41:47;4.72;;;2.30;;
69386;SDS011;56575;48.942;8.404;2022-07-29T14:44:13;4.90;;;2.13;;
69386;SDS011;56575;48.942;8.404;2022-07-29T14:46:39;3.97;;;2.00;;
69386;SDS011;56575;48.942;8.404;2022-07-29T14:49:04;2.73;;;2.00;;
69386;SDS011;56575;48.942;8.404;2022-07-29T14:51:30;5.22;;;2.30;;
69386;SDS011;56575;48.942;8.404;2022-07-29T14:53:56;3.97;;;1.85;;
69386;SDS011;56575;48.942;8.404;2022-07-29T14:56:21;3.10;;;1.90;;
69386;SDS011;56575;48.942;8.404;2022-07-29T14:58:47;4.05;;;1.90;;
69386;SDS011;56575;48.942;8.404;2022-07-29T15:01:13;3.73;;;2.30;;
69386;SDS011;56575;48.942;8.404;2022-07-29T15:03:40;5.10;;;2.20;;
69386;SDS011;56575;48.942;8.404;2022-07-29T15:06:05;4.05;;;1.98;;
69386;SDS011;56575;48.942;8.404;2022-07-29T15:08:31;3.83;;;1.77;;
69386;SDS011;56575;48.942;8.404;2022-07-29T15:10:56;2.70;;;1.73;;
69386;SDS011;56575;48.942;8.404;2022-07-29T15:13:25;3.10;;;1.83;;
69386;SDS011;56575;48.942;8.404;2022-07-29T15:15:51;5.53;;;1.90;;
69386;SDS011;56575;48.942;8.404;2022-07-29T15:18:17;5.37;;;2.03;;
69386;SDS011;56575;48.942;8.404;2022-07-29T15:20:42;3.20;;;1.90;;
69386;SDS011;56575;48.942;8.404;2022-07-29T15:23:10;3.67;;;1.88;;
69386;SDS011;56575;48.942;8.404;2022-07-29T15:25:37;2.90;;;1.73;;
69386;SDS011;56575;48.942;8.404;2022-07-29T15:28:03;3.28;;;1.75;;
69386;SDS011;56575;48.942;8.404;2022-07-29T15:30:32;3.77;;;1.90;;
69386;SDS011;56575;48.942;8.404;2022-07-29T15:32:58;3.78;;;1.80;;
69386;SDS011;56575;48.942;8.404;2022-07-29T15:35:23;3.45;;;1.85;;
69386;SDS011;56575;48.942;8.404;2022-07-29T15:37:49;3.17;;;1.70;;
69386;SDS011;56575;48.942;8.404;2022-07-29T15:40:14;4.90;;;1.63;;
69386;SDS011;56575;48.942;8.404;2022-07-29T15:42:40;2.80;;;2.05;;
69386;SDS011;56575;48.942;8.404;2022-07-29T15:45:05;4.23;;;1.90;;
69386;SDS011;56575;48.942;8.404;2022-07-29T15:47:31;2.80;;;1.85;;
69386;SDS011;56575;48.942;8.404;2022-07-29T15:49:57;4.27;;;1.60;;
69386;SDS011;56575;48.942;8.404;2022-07-29T15:52:22;3.53;;;1.83;;
69386;SDS011;56575;48.942;8.404;2022-07-29T15:54:48;2.77;;;1.60;;
69386;SDS011;56575;48.942;8.404;2022-07-29T15:57:13;2.78;;;1.92;;
69386;SDS011;56575;48.942;8.404;2022-07-29T15:59:38;5.03;;;1.67;;
69386;SDS011;56575;48.942;8.404;2022-07-29T16:02:04;3.20;;;1.80;;
69386;SDS011;56575;48.942;8.404;2022-07-29T16:04:29;3.78;;;2.13;;
69386;SDS011;56575;48.942;8.404;2022-07-29T16:06:56;3.60;;;1.73;;
69386;SDS011;56575;48.942;8.404;2022-07-29T16:09:21;4.55;;;1.70;;
69386;SDS011;56575;48.942;8.404;2022-07-29T16:11:47;3.40;;;1.83;;
69386;SDS011;56575;48.942;8.404;2022-07-29T16:14:14;3.97;;;2.03;;
69386;SDS011;56575;48.942;8.404;2022-07-29T16:16:41;4.07;;;1.98;;
69386;SDS011;56575;48.942;8.404;2022-07-29T16:19:06;3.90;;;1.90;;